Current | Forecast
Updated: 9:00 PM JST on June 27, 2017
Observed at Nagoya / Chubu, Japan
Temperature 72°F
Humidity 88%
Dew Point 68°F
Wind SE at 8 mph
Pressure 29.89 in (Steady)
Conditions Light Rain
Visibility 6.2 miles
UV 0 out of 16
Clouds (FEW) : 800 ft
Scattered Clouds (SCT) : 3000 ft
Mostly Cloudy (BKN) : 12000 ft
Yesterday's Maximum 77°F
Yesterday's Minimum 72°F approx.
Yesterday's Cooling Degree Days 9 approx.
Sunrise4:39 AM JST
Sunset7:08 PM JST
Moon Rise7:54 AM JST
Moon Set9:47 PM JST
Moon PhaseMoon Phase
Waxing Crescent
Raw METARMETAR RJGG 271200Z 14007KT 9999 -RA FEW008 SCT030 BKN120 22/20 Q1012 NOSIG


Monday
. High: 73° F.
Tuesday
. High: 73° F.
Wednesday
. High: 73° F.
Thursday
. High: 73° F.
Friday
. High: 75° F.
Saturday
. High: 78° F.
Sunday
. High: 78° F.
Monday
. High: 73° F.

Units: English | Metric

Find the Weather for any City, State or Zipcode, or Country:

U.S. State List | Severe Weather | Tropical Storms | Ski Conditions
United States | Canada | Central America | South America | Asia | Europe | Australia | Africa | Islands

Weather Underground

© Copyright 2017
The Weather Company, LLC